createdAt,value
2022-11-22T00:01:23.472Z,97710.78
2022-11-22T00:03:51.964Z,97706.47
2022-11-22T00:06:20.428Z,97709.88
2022-11-22T00:08:49.125Z,97717.59
2022-11-22T00:11:18.853Z,97708.16
2022-11-22T00:13:47.195Z,97709.03
2022-11-22T00:16:15.918Z,97713.38
2022-11-22T00:18:44.690Z,97705.56
2022-11-22T00:21:13.010Z,97698.75
2022-11-22T00:23:41.360Z,97698.75
2022-11-22T00:26:12.133Z,97691.88
2022-11-22T00:28:42.312Z,97691.00
2022-11-22T00:31:10.701Z,97678.19
2022-11-22T00:33:39.455Z,97683.31
2022-11-22T00:36:08.600Z,97673.84
2022-11-22T00:38:37.059Z,97673.03
2022-11-22T00:41:05.402Z,97661.91
2022-11-22T00:43:33.869Z,97669.63
2022-11-22T00:46:03.836Z,97673.94
2022-11-22T00:48:32.640Z,97659.34
2022-11-22T00:51:00.966Z,97657.63
2022-11-22T00:53:29.376Z,97664.53
2022-11-22T00:55:58.047Z,97658.50
2022-11-22T00:58:26.645Z,97666.28
2022-11-22T01:00:57.003Z,97683.47
2022-11-22T01:03:27.325Z,97681.72
2022-11-22T01:05:55.762Z,97685.22
2022-11-22T01:08:24.486Z,97684.34
2022-11-22T01:10:58.280Z,97680.91
2022-11-22T01:13:28.070Z,97668.91
2022-11-22T01:16:01.772Z,97697.22
2022-11-22T01:18:32.171Z,97695.50
2022-11-22T01:21:00.857Z,97681.75
2022-11-22T01:23:30.703Z,97679.19
2022-11-22T01:25:59.416Z,97674.03
2022-11-22T01:28:28.668Z,97685.25
2022-11-22T01:30:57.091Z,97677.59
2022-11-22T01:33:25.766Z,97680.16
2022-11-22T01:35:55.957Z,97681.91
2022-11-22T01:38:24.680Z,97687.06
2022-11-22T01:40:53.243Z,97690.44
2022-11-22T01:43:24.333Z,97691.31
2022-11-22T01:45:54.387Z,97699.91
2022-11-22T01:48:49.341Z,97693.06
2022-11-22T01:51:26.831Z,97704.25
2022-11-22T01:54:00.280Z,97691.38
2022-11-22T01:56:30.784Z,97681.06
2022-11-22T01:59:05.095Z,97693.94
2022-11-22T02:01:34.337Z,97698.22
2022-11-22T02:04:05.091Z,97696.47
2022-11-22T02:06:42.631Z,97700.84
2022-11-22T02:09:13.737Z,97711.13
2022-11-22T02:11:48.374Z,97700.78
2022-11-22T02:14:20.719Z,97714.56
2022-11-22T02:16:49.825Z,97717.16
2022-11-22T02:19:25.358Z,97714.63
2022-11-22T02:22:00.962Z,97722.34
2022-11-22T02:24:39.648Z,97726.63
2022-11-22T02:27:09.720Z,97724.91
2022-11-22T02:29:38.643Z,97720.63
2022-11-22T02:32:07.084Z,97721.41
2022-11-22T02:34:44.544Z,97733.50
2022-11-22T02:37:19.196Z,97737.78
2022-11-22T02:39:49.887Z,97740.34
2022-11-22T02:42:20.086Z,97743.81
2022-11-22T02:44:48.959Z,97745.50
2022-11-22T02:47:17.370Z,97751.53
2022-11-22T02:49:45.798Z,97743.81
2022-11-22T02:52:18.663Z,97752.44
2022-11-22T02:54:47.407Z,97755.03
2022-11-22T02:57:15.854Z,97756.75
2022-11-22T02:59:45.771Z,97754.25
2022-11-22T03:02:14.432Z,97758.53
2022-11-22T03:04:43.239Z,97755.13
2022-11-22T03:07:12.022Z,97766.28
2022-11-22T03:09:40.404Z,97767.16
2022-11-22T03:12:08.893Z,97762.88
2022-11-22T03:14:37.289Z,97765.47
2022-11-22T03:17:07.145Z,97763.72
2022-11-22T03:19:35.481Z,97767.13
2022-11-22T03:22:04.028Z,97764.53
2022-11-22T03:24:32.521Z,97773.09
2022-11-22T03:27:00.839Z,97783.38
2022-11-22T03:29:29.587Z,97773.97
2022-11-22T03:31:58.479Z,97775.72
2022-11-22T03:34:29.087Z,97788.63
2022-11-22T03:36:57.463Z,97786.88
2022-11-22T03:39:26.103Z,97784.34
2022-11-22T03:41:56.257Z,97795.53
2022-11-22T03:44:24.687Z,97793.81
2022-11-22T03:46:53.125Z,97802.38
2022-11-22T03:49:21.603Z,97792.94
2022-11-22T03:51:51.256Z,97798.16
2022-11-22T03:54:19.687Z,97804.13
2022-11-22T03:56:48.022Z,97805.88
2022-11-22T03:59:16.384Z,97806.75
2022-11-22T04:01:44.887Z,97801.59
2022-11-22T04:04:13.663Z,97804.16
2022-11-22T04:06:42.021Z,97805.03
2022-11-22T04:09:11.996Z,97806.78
2022-11-22T04:11:40.388Z,97809.38
2022-11-22T04:14:29.786Z,97812.75
2022-11-22T04:16:58.383Z,97815.25
2022-11-22T04:19:26.998Z,97820.41
2022-11-22T04:21:54.710Z,97831.56
2022-11-22T04:24:42.213Z,97827.28
2022-11-22T04:27:10.820Z,97829.81
2022-11-22T04:29:39.163Z,97832.38
2022-11-22T04:32:25.184Z,97829.75
2022-11-22T04:34:53.509Z,97822.84
2022-11-22T04:37:22.267Z,97832.28
2022-11-22T04:39:52.103Z,97827.13
2022-11-22T04:42:38.034Z,97832.28
2022-11-22T04:45:08.986Z,97827.94
2022-11-22T04:47:55.020Z,97839.94
2022-11-22T04:50:41.128Z,97844.22
2022-11-22T04:53:09.904Z,97839.03
2022-11-22T04:55:40.093Z,97848.50
2022-11-22T04:58:08.595Z,97844.16
2022-11-22T05:00:37.477Z,97842.44
2022-11-22T05:03:08.461Z,97837.34
2022-11-22T05:05:37.954Z,97844.19
2022-11-22T05:08:08.109Z,97843.28
2022-11-22T05:10:51.360Z,97848.41
2022-11-22T05:13:23.492Z,97848.34
2022-11-22T05:15:52.237Z,97844.03
2022-11-22T05:18:21.164Z,97838.00
2022-11-22T05:20:49.631Z,97846.59
2022-11-22T05:23:36.529Z,97844.84
2022-11-22T05:26:09.084Z,97840.53
2022-11-22T05:28:40.151Z,97836.25
2022-11-22T05:31:11.050Z,97849.13
2022-11-22T05:33:42.219Z,97840.53
2022-11-22T05:36:12.182Z,97843.09
2022-11-22T05:38:40.994Z,97842.16
2022-11-22T05:41:12.081Z,97845.63
2022-11-22T05:43:42.285Z,97847.31
2022-11-22T05:46:13.063Z,97849.00
2022-11-22T05:48:44.036Z,97854.16
2022-11-22T05:51:15.866Z,97848.13
2022-11-22T05:53:45.560Z,97854.94
2022-11-22T05:56:16.498Z,97853.19
2022-11-22T05:58:46.992Z,97855.75
2022-11-22T06:01:17.607Z,97866.81
2022-11-22T06:03:46.641Z,97869.34
2022-11-22T06:06:15.744Z,97869.28
2022-11-22T06:08:47.799Z,97889.81
2022-11-22T06:11:18.935Z,97888.06
2022-11-22T06:13:51.809Z,97890.56
2022-11-22T06:16:20.258Z,97895.72
2022-11-22T06:18:49.374Z,97899.97
2022-11-22T06:21:23.280Z,97893.97
2022-11-22T06:23:52.523Z,97899.00
2022-11-22T06:26:22.489Z,97901.59
2022-11-22T06:28:53.221Z,97902.47
2022-11-22T06:31:24.283Z,97899.00
2022-11-22T06:33:54.801Z,97907.59
2022-11-22T06:36:25.725Z,97906.72
2022-11-22T06:38:54.904Z,97905.00
2022-11-22T06:41:25.199Z,97906.72
2022-11-22T06:43:57.627Z,97906.72
2022-11-22T06:46:28.387Z,97910.09
2022-11-22T06:48:57.179Z,97910.06
2022-11-22T06:51:28.523Z,97900.63
2022-11-22T06:53:58.462Z,97912.63
2022-11-22T06:56:29.957Z,97910.00
2022-11-22T06:59:03.786Z,97913.44
2022-11-22T07:01:34.837Z,97910.00
2022-11-22T07:04:04.156Z,97916.88
2022-11-22T07:06:35.503Z,97922.84
2022-11-22T07:09:07.065Z,97917.56
2022-11-22T07:11:36.296Z,97919.25
2022-11-22T07:14:08.892Z,97923.53
2022-11-22T07:16:39.259Z,97933.69
2022-11-22T07:19:08.469Z,97931.06
2022-11-22T07:21:38.246Z,97940.47
2022-11-22T07:24:08.617Z,97951.59
2022-11-22T07:26:37.578Z,97951.53
2022-11-22T07:29:07.542Z,97942.94
2022-11-22T07:31:36.169Z,97938.59
2022-11-22T07:34:04.553Z,97942.00
2022-11-22T07:36:32.941Z,97948.84
2022-11-22T07:39:01.390Z,97949.66
2022-11-22T07:41:29.857Z,97945.34
2022-11-22T07:43:58.534Z,97953.06
2022-11-22T07:46:31.316Z,97957.34
2022-11-22T07:49:02.587Z,97949.63
2022-11-22T07:51:31.121Z,97941.94
2022-11-22T07:53:59.662Z,97941.06
2022-11-22T07:56:28.090Z,97944.50
2022-11-22T07:58:57.346Z,97926.53
2022-11-22T08:01:27.283Z,97948.00
2022-11-22T08:03:55.792Z,97947.97
2022-11-22T08:06:24.184Z,97954.84
2022-11-22T08:08:57.053Z,97958.31
2022-11-22T08:11:28.842Z,97949.72
2022-11-22T08:13:57.213Z,97951.50
2022-11-22T08:16:27.294Z,97950.66
2022-11-22T08:18:55.686Z,97937.84
2022-11-22T08:21:24.148Z,97936.16
2022-11-22T08:23:52.519Z,97945.63
2022-11-22T08:26:21.242Z,97949.06
2022-11-22T08:28:49.598Z,97947.38
2022-11-22T08:31:20.449Z,97961.13
2022-11-22T08:33:54.006Z,97953.44
2022-11-22T08:36:22.841Z,97965.50
2022-11-22T08:38:51.434Z,97956.91
2022-11-22T08:41:19.999Z,97959.53
2022-11-22T08:43:51.260Z,97954.59
2022-11-22T08:46:20.200Z,97964.03
2022-11-22T08:48:53.318Z,97965.81
2022-11-22T08:51:21.702Z,97971.78
2022-11-22T08:53:50.101Z,97969.22
2022-11-22T08:56:18.462Z,97965.81
2022-11-22T08:58:46.974Z,97971.00
2022-11-22T09:01:18.723Z,97967.63
2022-11-22T09:03:49.407Z,97977.03
2022-11-22T09:09:30.469Z,97987.31
2022-11-22T09:11:58.173Z,97987.31
2022-11-22T09:14:26.618Z,97978.75
2022-11-22T09:16:55.603Z,97980.50
2022-11-22T09:19:25.522Z,97979.69
2022-11-22T09:21:54.156Z,97984.03
2022-11-22T09:24:22.878Z,97978.91
2022-11-22T09:26:51.418Z,97979.84
2022-11-22T09:29:19.863Z,97991.88
2022-11-22T09:31:49.390Z,97986.81
2022-11-22T09:34:17.938Z,97999.78
2022-11-22T09:36:47.821Z,97991.22
2022-11-22T09:39:16.181Z,97998.09
2022-11-22T09:42:27.024Z,98005.00
2022-11-22T09:45:23.317Z,98001.59
2022-11-22T09:48:09.446Z,98002.53
2022-11-22T09:50:52.953Z,98000.84
2022-11-22T09:53:31.159Z,98001.75
2022-11-22T09:56:05.180Z,98004.41
2022-11-22T09:58:38.784Z,98004.50
2022-11-22T10:01:14.254Z,98009.72
2022-11-22T10:03:49.430Z,98013.22
2022-11-22T10:06:25.854Z,98009.88
2022-11-22T10:09:07.721Z,98007.31
2022-11-22T10:11:42.215Z,98002.22
2022-11-22T10:14:24.207Z,98011.63
2022-11-22T10:16:58.534Z,98004.84
2022-11-22T10:19:38.977Z,98008.31
2022-11-22T10:22:12.863Z,98010.16
2022-11-22T10:24:45.408Z,98001.59
2022-11-22T10:27:15.859Z,97999.91
2022-11-22T10:29:53.842Z,97996.53
2022-11-22T10:32:30.085Z,98001.72
2022-11-22T10:35:23.920Z,97988.84
2022-11-22T10:38:02.772Z,97995.75
2022-11-22T10:40:43.638Z,97998.38
2022-11-22T10:43:38.499Z,97984.63
2022-11-22T10:46:15.328Z,97978.66
2022-11-22T10:48:51.817Z,97984.72
2022-11-22T10:51:29.952Z,97986.44
2022-11-22T10:54:13.931Z,97977.03
2022-11-22T10:56:51.113Z,97983.03
2022-11-22T10:59:45.160Z,97976.19
2022-11-22T11:02:37.751Z,97971.91
2022-11-22T11:05:11.182Z,97971.03
2022-11-22T11:07:42.693Z,97971.09
2022-11-22T11:10:29.186Z,97964.28
2022-11-22T11:13:08.354Z,97958.31
2022-11-22T11:15:42.532Z,97954.09
2022-11-22T11:18:18.728Z,97947.31
2022-11-22T11:20:47.946Z,97947.34
2022-11-22T11:23:16.757Z,97943.97
2022-11-22T11:25:47.706Z,97946.63
2022-11-22T11:28:23.563Z,97942.41
2022-11-22T11:30:55.605Z,97925.25
2022-11-22T11:33:30.326Z,97932.22
2022-11-22T11:36:05.474Z,97934.00
2022-11-22T11:38:37.710Z,97922.06
2022-11-22T11:41:22.953Z,97924.66
2022-11-22T11:43:54.386Z,97929.91
2022-11-22T11:46:25.387Z,97934.19
2022-11-22T11:48:55.377Z,97917.03
2022-11-22T11:51:31.365Z,97917.03
2022-11-22T11:54:07.381Z,97912.81
2022-11-22T11:56:46.697Z,97911.16
2022-11-22T11:59:19.647Z,97921.47
2022-11-22T12:01:55.364Z,97916.34
2022-11-22T12:04:27.774Z,97916.41
2022-11-22T12:07:04.113Z,97907.84
2022-11-22T12:09:37.060Z,97911.31
2022-11-22T12:12:36.469Z,97910.44
2022-11-22T12:15:17.071Z,97929.41
2022-11-22T12:17:56.136Z,97924.25
2022-11-22T12:20:31.523Z,97927.66
2022-11-22T12:23:14.028Z,97927.75
2022-11-22T12:25:44.200Z,97939.78
2022-11-22T12:28:19.524Z,97926.97
2022-11-22T12:30:54.623Z,97927.03
2022-11-22T12:33:31.156Z,97926.28
2022-11-22T12:35:59.735Z,97920.31
2022-11-22T12:38:34.251Z,97915.25
2022-11-22T12:41:06.969Z,97926.56
2022-11-22T12:43:40.351Z,97920.59
2022-11-22T12:46:17.723Z,97927.53
2022-11-22T12:48:50.515Z,97921.63
2022-11-22T12:51:27.854Z,97914.81
2022-11-22T12:54:02.607Z,97920.91
2022-11-22T12:56:37.946Z,97923.53
2022-11-22T12:59:21.089Z,97920.13
2022-11-22T13:02:02.128Z,97924.44
2022-11-22T13:04:42.467Z,97915.88
2022-11-22T13:07:20.198Z,97925.31
2022-11-22T13:09:56.405Z,97926.19
2022-11-22T13:12:30.851Z,97915.91
2022-11-22T13:15:01.656Z,97918.50
2022-11-22T13:17:36.196Z,97921.94
2022-11-22T13:20:09.083Z,97915.88
2022-11-22T13:22:49.757Z,97925.31
2022-11-22T13:25:50.835Z,97916.72
2022-11-22T13:28:23.008Z,97921.78
2022-11-22T13:31:21.973Z,97909.72
2022-11-22T13:34:00.236Z,97913.06
2022-11-22T13:36:51.432Z,97921.63
2022-11-22T13:39:23.854Z,97914.78
2022-11-22T13:42:06.133Z,97910.44
2022-11-22T13:45:07.785Z,97927.59
2022-11-22T13:47:44.543Z,97926.72
2022-11-22T13:51:01.484Z,97931.84
2022-11-22T13:53:33.451Z,97925.84
2022-11-22T13:57:00.645Z,97918.09
2022-11-22T13:59:29.472Z,97919.81
2022-11-22T14:02:22.883Z,97923.25
2022-11-22T14:04:56.339Z,97920.66
2022-11-22T14:07:39.436Z,97912.94
2022-11-22T14:10:29.283Z,97918.09
2022-11-22T14:13:28.231Z,97918.09
2022-11-22T14:16:08.647Z,97916.38
2022-11-22T14:19:00.445Z,97921.56
2022-11-22T14:21:51.770Z,97920.66
2022-11-22T14:24:38.866Z,97914.66
2022-11-22T14:27:24.947Z,97918.06
2022-11-22T14:30:18.144Z,97919.75
2022-11-22T14:32:55.624Z,97924.09
2022-11-22T14:35:30.143Z,97922.34
2022-11-22T14:38:06.683Z,97930.13
2022-11-22T14:40:41.442Z,97933.53
2022-11-22T14:43:33.493Z,97929.25
2022-11-22T14:46:30.412Z,97933.53
2022-11-22T14:49:05.023Z,97924.88
2022-11-22T14:51:34.003Z,97922.34
2022-11-22T14:54:18.317Z,97906.88
2022-11-22T14:56:48.341Z,97898.31
2022-11-22T14:59:41.246Z,97902.59
2022-11-22T15:02:54.511Z,97913.72
2022-11-22T15:09:11.863Z,97905.94
2022-11-22T15:09:19.647Z,97905.94
2022-11-22T15:11:53.669Z,97911.09
2022-11-22T15:57:29.458Z,97933.09
2022-11-22T15:59:59.315Z,97927.03
2022-11-22T16:02:30.390Z,97928.78
2022-11-22T16:06:07.807Z,97926.19
2022-11-22T16:07:54.494Z,97939.09
2022-11-22T16:10:25.708Z,97937.34
2022-11-22T16:12:55.623Z,97930.47
2022-11-22T16:15:36.118Z,97941.63
2022-11-22T16:18:14.922Z,97937.28
2022-11-22T16:20:43.818Z,97936.38
2022-11-22T16:23:26.489Z,97938.94
2022-11-22T16:26:00.003Z,97955.25
2022-11-22T16:28:33.319Z,97954.41
2022-11-22T16:31:06.775Z,97954.41
2022-11-22T16:33:35.584Z,97956.09
2022-11-22T16:36:06.989Z,97949.22
2022-11-22T16:38:35.381Z,97955.22
2022-11-22T16:41:04.884Z,97951.78
2022-11-22T16:43:36.710Z,97956.09
2022-11-22T16:46:05.634Z,97961.25
2022-11-22T16:48:34.151Z,97967.25
2022-11-22T16:51:07.983Z,97962.13
2022-11-22T16:53:41.945Z,97965.53
2022-11-22T16:56:19.558Z,97975.03
2022-11-22T16:58:50.793Z,97972.41
2022-11-22T17:01:22.513Z,97974.16
2022-11-22T17:03:54.723Z,97982.72
2022-11-22T17:06:25.497Z,97982.72
2022-11-22T17:08:55.961Z,97989.53
2022-11-22T17:11:27.222Z,97992.09
2022-11-22T17:13:57.536Z,97982.72
2022-11-22T17:16:25.950Z,98004.06
2022-11-22T17:18:54.565Z,98003.19
2022-11-22T17:21:31.296Z,97986.88
2022-11-22T17:24:05.784Z,97993.75
2022-11-22T17:26:35.039Z,97993.75
2022-11-22T17:29:06.646Z,98004.97
2022-11-22T17:31:37.474Z,98001.56
2022-11-22T17:34:06.145Z,98001.56
2022-11-22T17:36:36.962Z,98000.69
2022-11-22T17:39:09.451Z,98007.59
2022-11-22T17:41:38.122Z,98015.34
2022-11-22T17:44:08.716Z,98018.78
2022-11-22T17:46:39.825Z,98027.41
2022-11-22T17:49:14.126Z,98025.69
2022-11-22T17:51:44.243Z,98037.66
2022-11-22T17:54:12.607Z,98029.09
2022-11-22T17:56:41.066Z,98031.72
2022-11-22T17:59:11.131Z,98033.41
2022-11-22T18:01:39.592Z,98040.28
2022-11-22T18:04:08.204Z,98042.88
2022-11-22T18:06:36.577Z,98037.66
2022-11-22T18:09:05.549Z,98038.56
2022-11-22T18:11:34.092Z,98049.78
2022-11-22T18:14:03.006Z,98043.78
2022-11-22T18:16:32.933Z,98046.38
2022-11-22T18:19:01.500Z,98053.25
2022-11-22T18:21:32.394Z,98043.78
2022-11-22T18:24:02.444Z,98047.19
2022-11-22T18:26:39.237Z,98053.22
2022-11-22T18:29:41.639Z,98056.69
2022-11-22T18:31:59.167Z,98061.84
2022-11-22T18:34:28.534Z,98059.28
2022-11-22T18:39:46.554Z,98059.28
2022-11-22T18:42:17.048Z,98056.75
2022-11-22T18:44:46.000Z,98059.34
2022-11-22T18:47:15.905Z,98059.34
2022-11-22T18:49:44.401Z,98064.44
2022-11-22T18:52:15.009Z,98056.69
2022-11-22T18:54:46.669Z,98058.41
2022-11-22T18:57:15.231Z,98064.41
2022-11-22T18:59:43.618Z,98060.16
2022-11-22T19:02:12.103Z,98060.16
2022-11-22T19:04:41.952Z,98067.94
2022-11-22T19:07:10.755Z,98063.56
2022-11-22T19:09:39.142Z,98068.72
2022-11-22T19:12:07.570Z,98070.38
2022-11-22T19:14:36.020Z,98071.25
2022-11-22T19:17:04.749Z,98075.53
2022-11-22T19:19:33.202Z,98072.13
2022-11-22T19:22:04.466Z,98079.91
2022-11-22T19:24:33.371Z,98072.13
2022-11-22T19:27:02.431Z,98074.72
2022-11-22T19:29:31.147Z,98073.88
2022-11-22T19:31:59.941Z,98069.59
2022-11-22T19:34:31.310Z,98068.78
2022-11-22T19:37:00.244Z,98069.66
2022-11-22T19:39:30.436Z,98069.66
2022-11-22T19:41:59.466Z,98061.91
2022-11-22T19:44:27.865Z,98066.22
2022-11-22T19:46:56.364Z,98068.78
2022-11-22T19:49:25.483Z,98060.22
2022-11-22T19:51:53.922Z,98062.78
2022-11-22T19:54:22.519Z,98070.47
2022-11-22T19:56:52.355Z,98067.06
2022-11-22T19:59:21.158Z,98066.19
2022-11-22T20:01:49.518Z,98071.34
2022-11-22T20:04:18.566Z,98068.78
2022-11-22T20:06:50.106Z,98073.06
2022-11-22T20:09:19.017Z,98069.59
2022-11-22T20:11:47.492Z,98074.75
2022-11-22T20:14:17.322Z,98076.50
2022-11-22T20:16:45.802Z,98062.78
2022-11-22T20:19:15.331Z,98066.19
2022-11-22T20:21:43.815Z,98061.91
2022-11-22T20:24:13.369Z,98063.63
2022-11-22T20:26:42.612Z,98061.91
2022-11-22T20:29:15.190Z,98070.53
2022-11-22T20:31:45.298Z,98063.63
2022-11-22T20:34:15.049Z,98065.38
2022-11-22T20:36:43.706Z,98074.81
2022-11-22T20:39:12.186Z,98074.75
2022-11-22T20:41:41.274Z,98074.72
2022-11-22T20:44:14.091Z,98080.78
2022-11-22T20:46:45.211Z,98081.63
2022-11-22T20:49:13.890Z,98080.78
2022-11-22T20:51:43.076Z,98079.91
2022-11-22T20:54:12.017Z,98078.22
2022-11-22T20:56:40.438Z,98082.53
2022-11-22T20:59:09.389Z,98091.09
2022-11-22T21:01:38.350Z,98079.03
2022-11-22T21:04:08.457Z,98085.94
2022-11-22T21:06:36.925Z,98085.94
2022-11-22T21:09:05.660Z,98092.81
2022-11-22T21:11:35.053Z,98086.72
2022-11-22T21:14:03.528Z,98091.09
2022-11-22T21:16:32.414Z,98085.03
2022-11-22T21:19:04.911Z,98092.84
2022-11-22T21:21:37.129Z,98094.56
2022-11-22T21:24:08.167Z,98084.25
2022-11-22T21:26:36.652Z,98091.16
2022-11-22T21:29:15.932Z,98093.75
2022-11-22T21:31:45.127Z,98100.59
2022-11-22T21:34:13.858Z,98096.31
2022-11-22T21:36:43.682Z,98095.44
2022-11-22T21:39:12.020Z,98097.25
2022-11-22T21:41:41.345Z,98101.56
2022-11-22T21:44:10.616Z,98099.88
2022-11-22T21:46:39.544Z,98113.63
2022-11-22T21:49:08.513Z,98114.47
2022-11-22T21:51:36.938Z,98117.91
2022-11-22T21:54:09.739Z,98111.88
2022-11-22T21:56:38.366Z,98116.22
2022-11-22T21:59:07.020Z,98114.47
2022-11-22T22:01:35.678Z,98117.09
2022-11-22T22:04:04.461Z,98109.34
2022-11-22T22:06:33.164Z,98122.25
2022-11-22T22:09:02.085Z,98111.94
2022-11-22T22:11:31.849Z,98114.50
2022-11-22T22:14:00.694Z,98123.94
2022-11-22T22:16:29.103Z,98124.00
2022-11-22T22:18:57.804Z,98118.84
2022-11-22T22:21:26.202Z,98125.75
2022-11-22T22:23:56.930Z,98111.16
2022-11-22T22:26:25.390Z,98120.59
2022-11-22T22:28:55.826Z,98122.34
2022-11-22T22:31:27.020Z,98118.91
2022-11-22T22:33:57.996Z,98117.19
2022-11-22T22:36:28.689Z,98120.66
2022-11-22T22:38:57.175Z,98119.75
2022-11-22T22:41:25.762Z,98115.50
2022-11-22T22:43:55.605Z,98121.53
2022-11-22T22:46:25.472Z,98121.47
2022-11-22T22:48:56.171Z,98119.78
2022-11-22T22:51:32.325Z,98118.06
2022-11-22T22:54:02.026Z,98124.06
2022-11-22T22:56:32.203Z,98128.38
2022-11-22T22:59:02.318Z,98124.94
2022-11-22T23:01:32.576Z,98120.66
2022-11-22T23:04:02.497Z,98123.22
2022-11-22T23:06:32.619Z,98119.78
2022-11-22T23:09:02.340Z,98121.47
2022-11-22T23:12:04.912Z,98124.06
2022-11-22T23:14:35.236Z,98124.03
2022-11-22T23:17:03.899Z,98128.28
2022-11-22T23:19:32.651Z,98114.50
2022-11-22T23:22:01.289Z,98124.00
2022-11-22T23:24:32.794Z,98130.91
2022-11-22T23:27:01.409Z,98123.16
2022-11-22T23:29:30.250Z,98134.34
2022-11-22T23:32:00.557Z,98133.47
2022-11-22T23:34:28.932Z,98137.75
2022-11-22T23:36:57.455Z,98129.16
2022-11-22T23:39:25.770Z,98141.22
2022-11-22T23:41:54.103Z,98130.84
2022-11-22T23:44:22.656Z,98133.38
2022-11-22T23:46:51.201Z,98143.75
2022-11-22T23:49:21.076Z,98138.59
2022-11-22T23:51:50.280Z,98157.50
2022-11-22T23:54:18.653Z,98152.34
2022-11-22T23:56:47.051Z,98146.38
2022-11-22T23:59:15.463Z,98148.13
